This is the latest recevied weather packets stored in our database for station/object N3FU-13. If no packets are shown the sender has not sent any weather packets the latest 10 day(s).
| Time | Temp. | Humidity | Pressure | Rain* | Wind** | Luminosity | Snow |
|---|---|---|---|---|---|---|---|
| 1777595235 | 25.56° C | 85% | 1011.6 hPa | 0 mm | - | - | - |
| 1777594335 | 25.56° C | 84% | 1011.4 hPa | 0 mm | - | - | - |
| 1777593435 | 26.11° C | 82% | 1011 hPa | 0 mm | - | - | - |
| 1777592535 | 26.11° C | 82% | 1011 hPa | 0 mm | - | - | - |
| 1777591635 | 26.67° C | 81% | 1010.9 hPa | 0 mm | - | - | - |
| 1777590735 | 26.67° C | 80% | 1010.7 hPa | 0 mm | - | - | - |
| 1777589835 | 27.22° C | 79% | 1010.7 hPa | 0 mm | - | - | - |
| 1777589432 | 27.22° C | 79% | 1010.6 hPa | 0 mm | - | - | - |
| 1777588935 | 27.78° C | 79% | 1010.8 hPa | 0 mm | - | - | - |
| 1777588091 | 27.22° C | 79% | 1010.6 hPa | 0 mm | - | - | - |
| 1777588035 | 27.22° C | 79% | 1010.6 hPa | 0 mm | - | - | - |
| 1777587135 | 27.78° C | 78% | 1010.6 hPa | 0 mm | - | - | - |
| 1777586312 | 28.33° C | 78% | 1010.9 hPa | 0 mm | - | - | - |
| 1777586235 | 28.33° C | 78% | 1010.9 hPa | 0 mm | - | - | - |
| 1777585335 | 28.33° C | 77% | 1010.9 hPa | 0 mm | - | - | - |
| 1777584435 | 28.89° C | 75% | 1011 hPa | 0 mm | - | - | - |
| 1777583535 | 29.44° C | 75% | 1011 hPa | 0 mm | - | - | - |
| 1777582748 | 30° C | 71% | 1011.2 hPa | 0 mm | - | - | - |
| 1777582635 | 30° C | 71% | 1011.2 hPa | 0 mm | - | - | - |
| 1777581735 | 29.44° C | 73% | 1011.4 hPa | 0 mm | - | - | - |
| 1777580835 | 29.44° C | 73% | 1011.5 hPa | 0 mm | - | - | - |
| 1777579935 | 30° C | 72% | 1011.3 hPa | 0 mm | - | - | - |
| 1777579035 | 30° C | 73% | 1011.4 hPa | 0 mm | - | - | - |
| 1777578135 | 30° C | 72% | 1011.6 hPa | 0 mm | - | - | - |
| 1777577235 | 30.56° C | 70% | 1011.8 hPa | 0 mm | - | - | - |
* Rain latest hour (hover to see other rain measurements)
** Current wind speed in m/s (hover to see current wind gust speed)